sensor_id;sensor_type;location;lat;lon;timestamp;temperature;humidity
48734;DHT22;34530;52.084;5.146;2023-04-06T00:00:47;17.50;65.00
48734;DHT22;34530;52.084;5.146;2023-04-06T00:03:13;17.50;65.10
48734;DHT22;34530;52.084;5.146;2023-04-06T00:05:38;17.50;65.20
48734;DHT22;34530;52.084;5.146;2023-04-06T00:08:04;17.40;65.20
48734;DHT22;34530;52.084;5.146;2023-04-06T00:10:30;17.40;65.30
48734;DHT22;34530;52.084;5.146;2023-04-06T00:12:57;17.40;65.30
48734;DHT22;34530;52.084;5.146;2023-04-06T00:15:23;17.40;65.30
48734;DHT22;34530;52.084;5.146;2023-04-06T00:17:49;17.40;65.40
48734;DHT22;34530;52.084;5.146;2023-04-06T00:20:15;17.40;65.50
48734;DHT22;34530;52.084;5.146;2023-04-06T00:22:41;17.40;65.60
48734;DHT22;34530;52.084;5.146;2023-04-06T00:25:07;17.40;65.60
48734;DHT22;34530;52.084;5.146;2023-04-06T00:27:32;17.40;65.60
48734;DHT22;34530;52.084;5.146;2023-04-06T00:29:58;17.40;65.70
48734;DHT22;34530;52.084;5.146;2023-04-06T00:32:24;17.30;65.60
48734;DHT22;34530;52.084;5.146;2023-04-06T00:34:49;17.30;65.70
48734;DHT22;34530;52.084;5.146;2023-04-06T00:37:15;17.30;65.70
48734;DHT22;34530;52.084;5.146;2023-04-06T00:39:41;17.30;65.80
48734;DHT22;34530;52.084;5.146;2023-04-06T00:42:12;17.30;65.80
48734;DHT22;34530;52.084;5.146;2023-04-06T00:44:41;17.30;65.80
48734;DHT22;34530;52.084;5.146;2023-04-06T00:47:07;17.20;65.90
48734;DHT22;34530;52.084;5.146;2023-04-06T00:49:33;17.30;66.00
48734;DHT22;34530;52.084;5.146;2023-04-06T00:52:00;17.20;65.90
48734;DHT22;34530;52.084;5.146;2023-04-06T00:54:26;17.20;66.00
48734;DHT22;34530;52.084;5.146;2023-04-06T00:56:52;17.20;66.00
48734;DHT22;34530;52.084;5.146;2023-04-06T00:59:18;17.20;66.10
48734;DHT22;34530;52.084;5.146;2023-04-06T01:01:44;17.20;66.10
48734;DHT22;34530;52.084;5.146;2023-04-06T01:04:10;17.20;66.10
48734;DHT22;34530;52.084;5.146;2023-04-06T01:06:35;17.20;66.20
48734;DHT22;34530;52.084;5.146;2023-04-06T01:09:01;17.20;66.20
48734;DHT22;34530;52.084;5.146;2023-04-06T01:11:27;17.10;66.10
48734;DHT22;34530;52.084;5.146;2023-04-06T01:13:53;17.10;66.20
48734;DHT22;34530;52.084;5.146;2023-04-06T01:16:18;17.10;66.20
48734;DHT22;34530;52.084;5.146;2023-04-06T01:18:44;17.10;66.20
48734;DHT22;34530;52.084;5.146;2023-04-06T01:21:10;17.10;66.30
48734;DHT22;34530;52.084;5.146;2023-04-06T01:23:43;17.10;66.30
48734;DHT22;34530;52.084;5.146;2023-04-06T01:26:09;17.10;66.30
48734;DHT22;34530;52.084;5.146;2023-04-06T01:28:35;17.10;66.30
48734;DHT22;34530;52.084;5.146;2023-04-06T01:31:03;17.00;66.30
48734;DHT22;34530;52.084;5.146;2023-04-06T01:33:28;17.00;66.30
48734;DHT22;34530;52.084;5.146;2023-04-06T01:35:54;17.00;66.40
48734;DHT22;34530;52.084;5.146;2023-04-06T01:38:20;17.00;66.40
48734;DHT22;34530;52.084;5.146;2023-04-06T01:40:46;17.00;66.40
48734;DHT22;34530;52.084;5.146;2023-04-06T01:43:11;17.00;66.40
48734;DHT22;34530;52.084;5.146;2023-04-06T01:45:37;17.00;66.40
48734;DHT22;34530;52.084;5.146;2023-04-06T01:48:03;16.90;66.40
48734;DHT22;34530;52.084;5.146;2023-04-06T01:50:29;16.90;66.40
48734;DHT22;34530;52.084;5.146;2023-04-06T01:52:54;16.90;66.40
48734;DHT22;34530;52.084;5.146;2023-04-06T01:55:20;16.90;66.40
48734;DHT22;34530;52.084;5.146;2023-04-06T01:57:46;16.90;66.40
48734;DHT22;34530;52.084;5.146;2023-04-06T02:00:12;16.90;66.40
48734;DHT22;34530;52.084;5.146;2023-04-06T02:02:38;16.90;66.40
48734;DHT22;34530;52.084;5.146;2023-04-06T02:05:04;16.90;66.40
48734;DHT22;34530;52.084;5.146;2023-04-06T02:07:29;16.90;66.40
48734;DHT22;34530;52.084;5.146;2023-04-06T02:09:55;16.80;66.40
48734;DHT22;34530;52.084;5.146;2023-04-06T02:12:21;16.80;66.50
48734;DHT22;34530;52.084;5.146;2023-04-06T02:14:47;16.80;66.50
48734;DHT22;34530;52.084;5.146;2023-04-06T02:17:12;16.80;66.50
48734;DHT22;34530;52.084;5.146;2023-04-06T02:19:38;16.80;66.50
48734;DHT22;34530;52.084;5.146;2023-04-06T02:22:03;16.80;66.50
48734;DHT22;34530;52.084;5.146;2023-04-06T02:24:29;16.80;66.50
48734;DHT22;34530;52.084;5.146;2023-04-06T02:26:55;16.80;66.50
48734;DHT22;34530;52.084;5.146;2023-04-06T02:29:20;16.70;66.40
48734;DHT22;34530;52.084;5.146;2023-04-06T02:31:46;16.70;66.40
48734;DHT22;34530;52.084;5.146;2023-04-06T02:34:12;16.70;66.40
48734;DHT22;34530;52.084;5.146;2023-04-06T02:36:44;16.70;67.10
48734;DHT22;34530;52.084;5.146;2023-04-06T02:39:09;16.70;66.40
48734;DHT22;34530;52.084;5.146;2023-04-06T02:41:35;16.70;66.40
48734;DHT22;34530;52.084;5.146;2023-04-06T02:44:01;16.70;66.50
48734;DHT22;34530;52.084;5.146;2023-04-06T02:46:27;16.70;66.30
48734;DHT22;34530;52.084;5.146;2023-04-06T02:48:52;16.60;66.30
48734;DHT22;34530;52.084;5.146;2023-04-06T02:51:18;16.60;66.30
48734;DHT22;34530;52.084;5.146;2023-04-06T02:53:44;16.60;66.60
48734;DHT22;34530;52.084;5.146;2023-04-06T02:56:09;16.60;66.30
48734;DHT22;34530;52.084;5.146;2023-04-06T02:58:35;16.60;66.30
48734;DHT22;34530;52.084;5.146;2023-04-06T03:01:02;16.60;66.30
48734;DHT22;34530;52.084;5.146;2023-04-06T03:03:28;16.60;66.30
48734;DHT22;34530;52.084;5.146;2023-04-06T03:05:54;16.60;66.30
48734;DHT22;34530;52.084;5.146;2023-04-06T03:08:21;16.60;66.30
48734;DHT22;34530;52.084;5.146;2023-04-06T03:10:47;16.60;66.20
48734;DHT22;34530;52.084;5.146;2023-04-06T03:13:12;16.50;66.20
48734;DHT22;34530;52.084;5.146;2023-04-06T03:15:38;16.50;66.20
48734;DHT22;34530;52.084;5.146;2023-04-06T03:18:03;16.50;66.20
48734;DHT22;34530;52.084;5.146;2023-04-06T03:20:29;16.50;66.20
48734;DHT22;34530;52.084;5.146;2023-04-06T03:22:55;16.50;66.20
48734;DHT22;34530;52.084;5.146;2023-04-06T03:25:21;16.50;66.20
48734;DHT22;34530;52.084;5.146;2023-04-06T03:27:46;16.50;66.20
48734;DHT22;34530;52.084;5.146;2023-04-06T03:30:12;16.50;66.20
48734;DHT22;34530;52.084;5.146;2023-04-06T03:32:38;16.40;66.10
48734;DHT22;34530;52.084;5.146;2023-04-06T03:35:04;16.40;66.00
48734;DHT22;34530;52.084;5.146;2023-04-06T03:37:29;16.40;66.10
48734;DHT22;34530;52.084;5.146;2023-04-06T03:39:55;16.40;66.10
48734;DHT22;34530;52.084;5.146;2023-04-06T03:42:21;16.40;66.10
48734;DHT22;34530;52.084;5.146;2023-04-06T03:44:46;16.40;66.10
48734;DHT22;34530;52.084;5.146;2023-04-06T03:47:12;16.40;66.00
48734;DHT22;34530;52.084;5.146;2023-04-06T03:49:37;16.40;66.10
48734;DHT22;34530;52.084;5.146;2023-04-06T03:52:03;16.40;66.00
48734;DHT22;34530;52.084;5.146;2023-04-06T03:54:29;16.30;66.00
48734;DHT22;34530;52.084;5.146;2023-04-06T03:56:55;16.40;66.00
48734;DHT22;34530;52.084;5.146;2023-04-06T03:59:20;16.30;66.00
48734;DHT22;34530;52.084;5.146;2023-04-06T04:01:46;16.30;66.00
48734;DHT22;34530;52.084;5.146;2023-04-06T04:04:11;16.30;66.00
48734;DHT22;34530;52.084;5.146;2023-04-06T04:06:37;16.30;66.00
48734;DHT22;34530;52.084;5.146;2023-04-06T04:09:03;16.30;65.90
48734;DHT22;34530;52.084;5.146;2023-04-06T04:11:28;16.30;66.00
48734;DHT22;34530;52.084;5.146;2023-04-06T04:13:54;16.30;65.90
48734;DHT22;34530;52.084;5.146;2023-04-06T04:16:19;16.30;65.90
48734;DHT22;34530;52.084;5.146;2023-04-06T04:18:45;16.30;65.90
48734;DHT22;34530;52.084;5.146;2023-04-06T04:21:12;16.20;65.90
48734;DHT22;34530;52.084;5.146;2023-04-06T04:23:38;16.20;65.80
48734;DHT22;34530;52.084;5.146;2023-04-06T04:26:03;16.20;65.90
48734;DHT22;34530;52.084;5.146;2023-04-06T04:28:29;16.20;65.80
48734;DHT22;34530;52.084;5.146;2023-04-06T04:30:55;16.20;65.80
48734;DHT22;34530;52.084;5.146;2023-04-06T04:33:21;16.20;66.50
48734;DHT22;34530;52.084;5.146;2023-04-06T04:35:46;16.20;65.80
48734;DHT22;34530;52.084;5.146;2023-04-06T04:38:12;16.20;65.80
48734;DHT22;34530;52.084;5.146;2023-04-06T04:40:38;16.20;65.80
48734;DHT22;34530;52.084;5.146;2023-04-06T04:43:04;16.10;66.40
48734;DHT22;34530;52.084;5.146;2023-04-06T04:45:30;16.10;65.70
48734;DHT22;34530;52.084;5.146;2023-04-06T04:47:55;16.10;65.70
48734;DHT22;34530;52.084;5.146;2023-04-06T04:50:21;16.10;65.60
48734;DHT22;34530;52.084;5.146;2023-04-06T04:52:46;16.10;65.60
48734;DHT22;34530;52.084;5.146;2023-04-06T04:55:12;16.10;65.60
48734;DHT22;34530;52.084;5.146;2023-04-06T04:57:38;16.10;65.60
48734;DHT22;34530;52.084;5.146;2023-04-06T05:00:04;16.10;65.50
48734;DHT22;34530;52.084;5.146;2023-04-06T05:02:30;16.10;65.60
48734;DHT22;34530;52.084;5.146;2023-04-06T05:04:55;16.10;65.50
48734;DHT22;34530;52.084;5.146;2023-04-06T05:07:21;16.10;65.50
48734;DHT22;34530;52.084;5.146;2023-04-06T05:09:47;16.00;65.50
48734;DHT22;34530;52.084;5.146;2023-04-06T05:12:13;16.00;65.40
48734;DHT22;34530;52.084;5.146;2023-04-06T05:14:39;16.00;65.30
48734;DHT22;34530;52.084;5.146;2023-04-06T05:17:05;16.00;65.30
48734;DHT22;34530;52.084;5.146;2023-04-06T05:19:30;16.00;65.30
48734;DHT22;34530;52.084;5.146;2023-04-06T05:21:56;16.00;65.30
48734;DHT22;34530;52.084;5.146;2023-04-06T05:24:22;16.00;65.30
48734;DHT22;34530;52.084;5.146;2023-04-06T05:26:48;16.00;65.30
48734;DHT22;34530;52.084;5.146;2023-04-06T05:29:14;15.90;65.20
48734;DHT22;34530;52.084;5.146;2023-04-06T05:31:40;15.90;65.30
48734;DHT22;34530;52.084;5.146;2023-04-06T05:34:06;15.90;65.20
48734;DHT22;34530;52.084;5.146;2023-04-06T05:36:32;15.90;65.20
48734;DHT22;34530;52.084;5.146;2023-04-06T05:38:58;15.90;65.10
48734;DHT22;34530;52.084;5.146;2023-04-06T05:41:23;15.90;65.10
48734;DHT22;34530;52.084;5.146;2023-04-06T05:43:49;15.90;65.10
48734;DHT22;34530;52.084;5.146;2023-04-06T05:46:15;15.90;65.10
48734;DHT22;34530;52.084;5.146;2023-04-06T05:48:40;15.90;65.00
48734;DHT22;34530;52.084;5.146;2023-04-06T05:51:06;15.90;65.00
48734;DHT22;34530;52.084;5.146;2023-04-06T05:53:32;15.90;65.00
48734;DHT22;34530;52.084;5.146;2023-04-06T05:56:01;15.90;65.00
48734;DHT22;34530;52.084;5.146;2023-04-06T05:58:27;15.90;64.90
48734;DHT22;34530;52.084;5.146;2023-04-06T06:01:00;15.90;64.80
48734;DHT22;34530;52.084;5.146;2023-04-06T06:03:26;15.80;64.70
48734;DHT22;34530;52.084;5.146;2023-04-06T06:05:51;15.80;64.60
48734;DHT22;34530;52.084;5.146;2023-04-06T06:08:17;15.80;64.60
48734;DHT22;34530;52.084;5.146;2023-04-06T06:10:43;15.80;64.60
48734;DHT22;34530;52.084;5.146;2023-04-06T06:13:09;15.80;64.60
48734;DHT22;34530;52.084;5.146;2023-04-06T06:15:35;15.80;64.60
48734;DHT22;34530;52.084;5.146;2023-04-06T06:18:00;15.80;64.60
48734;DHT22;34530;52.084;5.146;2023-04-06T06:20:27;15.80;64.60
48734;DHT22;34530;52.084;5.146;2023-04-06T06:22:52;15.80;64.60
48734;DHT22;34530;52.084;5.146;2023-04-06T06:25:18;15.80;64.60
48734;DHT22;34530;52.084;5.146;2023-04-06T06:27:44;15.80;64.70
48734;DHT22;34530;52.084;5.146;2023-04-06T06:30:10;15.80;64.70
48734;DHT22;34530;52.084;5.146;2023-04-06T06:32:35;15.80;64.70
48734;DHT22;34530;52.084;5.146;2023-04-06T06:35:01;15.80;64.70
48734;DHT22;34530;52.084;5.146;2023-04-06T06:37:28;15.80;64.70
48734;DHT22;34530;52.084;5.146;2023-04-06T06:39:53;15.80;64.70
48734;DHT22;34530;52.084;5.146;2023-04-06T06:42:19;15.70;64.60
48734;DHT22;34530;52.084;5.146;2023-04-06T06:44:44;15.70;64.60
48734;DHT22;34530;52.084;5.146;2023-04-06T06:47:10;15.70;64.60
48734;DHT22;34530;52.084;5.146;2023-04-06T06:49:36;15.70;64.60
48734;DHT22;34530;52.084;5.146;2023-04-06T06:52:01;15.70;64.60
48734;DHT22;34530;52.084;5.146;2023-04-06T06:54:27;15.70;64.60
48734;DHT22;34530;52.084;5.146;2023-04-06T06:56:52;15.70;64.70
48734;DHT22;34530;52.084;5.146;2023-04-06T06:59:19;15.70;64.60
48734;DHT22;34530;52.084;5.146;2023-04-06T07:01:45;15.70;64.60
48734;DHT22;34530;52.084;5.146;2023-04-06T07:04:11;15.70;64.70
48734;DHT22;34530;52.084;5.146;2023-04-06T07:06:37;15.70;64.70
48734;DHT22;34530;52.084;5.146;2023-04-06T07:09:02;15.70;64.70
48734;DHT22;34530;52.084;5.146;2023-04-06T07:11:31;15.60;64.60
48734;DHT22;34530;52.084;5.146;2023-04-06T07:13:57;15.60;64.60
48734;DHT22;34530;52.084;5.146;2023-04-06T07:16:22;15.60;64.60
48734;DHT22;34530;52.084;5.146;2023-04-06T07:18:48;15.60;64.60
48734;DHT22;34530;52.084;5.146;2023-04-06T07:21:14;15.60;64.60
48734;DHT22;34530;52.084;5.146;2023-04-06T07:23:39;15.60;64.60
48734;DHT22;34530;52.084;5.146;2023-04-06T07:26:05;15.60;64.60
48734;DHT22;34530;52.084;5.146;2023-04-06T07:28:31;15.60;65.40
48734;DHT22;34530;52.084;5.146;2023-04-06T07:30:56;15.60;64.60
48734;DHT22;34530;52.084;5.146;2023-04-06T07:33:22;15.60;64.60
48734;DHT22;34530;52.084;5.146;2023-04-06T07:35:48;15.60;64.60
48734;DHT22;34530;52.084;5.146;2023-04-06T07:38:13;15.60;64.60
48734;DHT22;34530;52.084;5.146;2023-04-06T07:40:39;15.60;64.60
48734;DHT22;34530;52.084;5.146;2023-04-06T07:43:05;15.60;64.60
48734;DHT22;34530;52.084;5.146;2023-04-06T07:45:30;15.50;64.60
48734;DHT22;34530;52.084;5.146;2023-04-06T07:47:56;15.50;64.60
48734;DHT22;34530;52.084;5.146;2023-04-06T07:50:22;15.50;64.60
48734;DHT22;34530;52.084;5.146;2023-04-06T07:52:48;15.50;64.60
48734;DHT22;34530;52.084;5.146;2023-04-06T07:55:14;15.50;64.60
48734;DHT22;34530;52.084;5.146;2023-04-06T07:57:39;15.50;64.60
48734;DHT22;34530;52.084;5.146;2023-04-06T08:00:05;15.50;64.60
48734;DHT22;34530;52.084;5.146;2023-04-06T08:02:31;15.50;64.60
48734;DHT22;34530;52.084;5.146;2023-04-06T08:04:57;15.50;64.60
48734;DHT22;34530;52.084;5.146;2023-04-06T08:07:23;15.50;64.60
48734;DHT22;34530;52.084;5.146;2023-04-06T08:09:48;15.50;64.60
48734;DHT22;34530;52.084;5.146;2023-04-06T08:12:14;15.50;64.60
48734;DHT22;34530;52.084;5.146;2023-04-06T08:14:40;15.50;64.60
48734;DHT22;34530;52.084;5.146;2023-04-06T08:17:06;15.50;64.50
48734;DHT22;34530;52.084;5.146;2023-04-06T08:19:31;15.50;64.60
48734;DHT22;34530;52.084;5.146;2023-04-06T08:21:57;15.50;64.60
48734;DHT22;34530;52.084;5.146;2023-04-06T08:24:24;15.50;64.60
48734;DHT22;34530;52.084;5.146;2023-04-06T08:26:49;15.50;64.60
48734;DHT22;34530;52.084;5.146;2023-04-06T08:29:16;15.50;64.50
48734;DHT22;34530;52.084;5.146;2023-04-06T08:31:42;15.50;64.50
48734;DHT22;34530;52.084;5.146;2023-04-06T08:34:08;15.50;64.50
48734;DHT22;34530;52.084;5.146;2023-04-06T08:36:33;15.50;64.50
48734;DHT22;34530;52.084;5.146;2023-04-06T08:39:00;15.50;64.50
48734;DHT22;34530;52.084;5.146;2023-04-06T08:41:26;15.50;64.50
48734;DHT22;34530;52.084;5.146;2023-04-06T08:43:57;15.50;64.40
48734;DHT22;34530;52.084;5.146;2023-04-06T08:46:24;15.50;64.40
48734;DHT22;34530;52.084;5.146;2023-04-06T08:48:57;15.50;64.40
48734;DHT22;34530;52.084;5.146;2023-04-06T08:51:24;15.50;64.50
48734;DHT22;34530;52.084;5.146;2023-04-06T08:53:53;15.50;64.40
48734;DHT22;34530;52.084;5.146;2023-04-06T08:56:21;15.40;64.40
48734;DHT22;34530;52.084;5.146;2023-04-06T08:58:47;15.50;64.40
48734;DHT22;34530;52.084;5.146;2023-04-06T09:01:14;15.40;64.30
48734;DHT22;34530;52.084;5.146;2023-04-06T09:03:43;15.40;64.30
48734;DHT22;34530;52.084;5.146;2023-04-06T09:06:09;15.40;64.40
48734;DHT22;34530;52.084;5.146;2023-04-06T09:08:38;15.40;64.30
48734;DHT22;34530;52.084;5.146;2023-04-06T09:11:05;15.40;64.40
48734;DHT22;34530;52.084;5.146;2023-04-06T09:13:31;15.40;64.30
48734;DHT22;34530;52.084;5.146;2023-04-06T09:16:04;15.40;64.30
48734;DHT22;34530;52.084;5.146;2023-04-06T09:18:32;15.40;64.30
48734;DHT22;34530;52.084;5.146;2023-04-06T09:21:02;15.40;64.30
48734;DHT22;34530;52.084;5.146;2023-04-06T09:23:28;15.40;64.30
48734;DHT22;34530;52.084;5.146;2023-04-06T09:26:14;15.40;64.30
48734;DHT22;34530;52.084;5.146;2023-04-06T09:28:51;15.40;64.20
48734;DHT22;34530;52.084;5.146;2023-04-06T09:31:24;15.40;64.20
48734;DHT22;34530;52.084;5.146;2023-04-06T09:33:51;15.40;65.00
48734;DHT22;34530;52.084;5.146;2023-04-06T09:36:20;15.40;64.20
48734;DHT22;34530;52.084;5.146;2023-04-06T09:38:56;15.40;64.10
48734;DHT22;34530;52.084;5.146;2023-04-06T09:43:50;15.40;64.10
48734;DHT22;34530;52.084;5.146;2023-04-06T09:46:16;15.40;64.10
48734;DHT22;34530;52.084;5.146;2023-04-06T09:48:43;15.40;64.00
48734;DHT22;34530;52.084;5.146;2023-04-06T09:51:11;15.40;64.00
48734;DHT22;34530;52.084;5.146;2023-04-06T09:53:39;15.40;64.00
48734;DHT22;34530;52.084;5.146;2023-04-06T09:56:09;15.40;64.00
48734;DHT22;34530;52.084;5.146;2023-04-06T09:58:39;15.40;64.00
48734;DHT22;34530;52.084;5.146;2023-04-06T10:01:15;15.40;64.00
48734;DHT22;34530;52.084;5.146;2023-04-06T10:03:54;15.40;64.00
48734;DHT22;34530;52.084;5.146;2023-04-06T10:06:23;15.40;63.90
48734;DHT22;34530;52.084;5.146;2023-04-06T10:08:52;15.40;64.00
48734;DHT22;34530;52.084;5.146;2023-04-06T10:11:21;15.40;64.00
48734;DHT22;34530;52.084;5.146;2023-04-06T10:13:48;15.40;64.00
48734;DHT22;34530;52.084;5.146;2023-04-06T10:16:15;15.40;64.00
48734;DHT22;34530;52.084;5.146;2023-04-06T10:18:46;15.30;63.90
48734;DHT22;34530;52.084;5.146;2023-04-06T10:21:16;15.40;63.90
48734;DHT22;34530;52.084;5.146;2023-04-06T10:23:48;15.30;63.80
48734;DHT22;34530;52.084;5.146;2023-04-06T10:26:16;15.30;63.90
48734;DHT22;34530;52.084;5.146;2023-04-06T10:28:43;15.30;63.80
48734;DHT22;34530;52.084;5.146;2023-04-06T10:31:09;15.30;63.90
48734;DHT22;34530;52.084;5.146;2023-04-06T10:33:35;15.30;63.80
48734;DHT22;34530;52.084;5.146;2023-04-06T10:36:14;15.30;63.80
48734;DHT22;34530;52.084;5.146;2023-04-06T10:38:41;15.30;63.80
48734;DHT22;34530;52.084;5.146;2023-04-06T10:41:11;15.30;63.80
48734;DHT22;34530;52.084;5.146;2023-04-06T10:43:41;15.30;63.80
48734;DHT22;34530;52.084;5.146;2023-04-06T10:46:08;15.30;63.80
48734;DHT22;34530;52.084;5.146;2023-04-06T10:48:40;15.30;63.70
48734;DHT22;34530;52.084;5.146;2023-04-06T10:51:13;15.30;63.70
48734;DHT22;34530;52.084;5.146;2023-04-06T10:53:41;15.30;63.70
48734;DHT22;34530;52.084;5.146;2023-04-06T10:56:13;15.30;63.70
48734;DHT22;34530;52.084;5.146;2023-04-06T10:58:47;15.30;63.70
48734;DHT22;34530;52.084;5.146;2023-04-06T11:01:15;15.40;63.70
48734;DHT22;34530;52.084;5.146;2023-04-06T11:03:46;15.30;63.70
48734;DHT22;34530;52.084;5.146;2023-04-06T11:06:21;15.30;63.70
48734;DHT22;34530;52.084;5.146;2023-04-06T11:08:49;15.30;63.60
48734;DHT22;34530;52.084;5.146;2023-04-06T11:11:21;15.30;63.60
48734;DHT22;34530;52.084;5.146;2023-04-06T11:13:58;15.30;63.60
48734;DHT22;34530;52.084;5.146;2023-04-06T11:16:25;15.30;63.60
48734;DHT22;34530;52.084;5.146;2023-04-06T11:18:56;15.30;63.60
48734;DHT22;34530;52.084;5.146;2023-04-06T11:27:05;15.30;63.60
48734;DHT22;34530;52.084;5.146;2023-04-06T11:29:31;15.30;63.60
48734;DHT22;34530;52.084;5.146;2023-04-06T11:32:05;15.30;63.70
48734;DHT22;34530;52.084;5.146;2023-04-06T11:34:33;15.30;63.60
48734;DHT22;34530;52.084;5.146;2023-04-06T11:37:03;15.30;63.60
48734;DHT22;34530;52.084;5.146;2023-04-06T11:39:32;15.30;63.60
48734;DHT22;34530;52.084;5.146;2023-04-06T11:42:01;15.30;63.60
48734;DHT22;34530;52.084;5.146;2023-04-06T11:44:40;15.30;63.60
48734;DHT22;34530;52.084;5.146;2023-04-06T11:47:09;15.30;63.60
48734;DHT22;34530;52.084;5.146;2023-04-06T11:49:39;15.30;63.60
48734;DHT22;34530;52.084;5.146;2023-04-06T11:52:18;15.30;63.60
48734;DHT22;34530;52.084;5.146;2023-04-06T11:54:45;15.30;63.60
48734;DHT22;34530;52.084;5.146;2023-04-06T11:57:11;15.30;63.60
48734;DHT22;34530;52.084;5.146;2023-04-06T11:59:36;15.30;63.90
48734;DHT22;34530;52.084;5.146;2023-04-06T12:02:03;15.30;63.60
48734;DHT22;34530;52.084;5.146;2023-04-06T12:04:29;15.30;63.60
48734;DHT22;34530;52.084;5.146;2023-04-06T12:06:55;15.30;63.60
48734;DHT22;34530;52.084;5.146;2023-04-06T12:09:21;15.30;63.60
48734;DHT22;34530;52.084;5.146;2023-04-06T12:11:47;15.30;63.60
48734;DHT22;34530;52.084;5.146;2023-04-06T12:14:13;15.30;63.60
48734;DHT22;34530;52.084;5.146;2023-04-06T12:16:39;15.30;63.60
48734;DHT22;34530;52.084;5.146;2023-04-06T12:19:05;15.30;63.60
48734;DHT22;34530;52.084;5.146;2023-04-06T12:21:31;15.30;63.60
48734;DHT22;34530;52.084;5.146;2023-04-06T12:23:58;15.30;63.60
48734;DHT22;34530;52.084;5.146;2023-04-06T12:26:24;15.30;63.60
48734;DHT22;34530;52.084;5.146;2023-04-06T12:28:50;15.30;63.60
48734;DHT22;34530;52.084;5.146;2023-04-06T12:31:17;15.30;63.60
48734;DHT22;34530;52.084;5.146;2023-04-06T12:33:43;15.30;63.60
48734;DHT22;34530;52.084;5.146;2023-04-06T12:36:14;15.30;63.70
48734;DHT22;34530;52.084;5.146;2023-04-06T12:38:43;15.30;63.60
48734;DHT22;34530;52.084;5.146;2023-04-06T12:41:11;15.30;63.60
48734;DHT22;34530;52.084;5.146;2023-04-06T12:43:37;15.30;63.60
48734;DHT22;34530;52.084;5.146;2023-04-06T12:46:02;15.30;63.70
48734;DHT22;34530;52.084;5.146;2023-04-06T12:48:28;15.30;63.70
48734;DHT22;34530;52.084;5.146;2023-04-06T12:51:04;15.30;63.70
48734;DHT22;34530;52.084;5.146;2023-04-06T12:53:31;15.30;63.60
48734;DHT22;34530;52.084;5.146;2023-04-06T12:55:57;15.30;63.70
48734;DHT22;34530;52.084;5.146;2023-04-06T12:58:23;15.30;63.70
48734;DHT22;34530;52.084;5.146;2023-04-06T13:00:51;15.30;63.70
48734;DHT22;34530;52.084;5.146;2023-04-06T13:03:17;15.30;63.70
48734;DHT22;34530;52.084;5.146;2023-04-06T13:05:44;15.30;63.70
48734;DHT22;34530;52.084;5.146;2023-04-06T13:08:10;15.30;63.80
48734;DHT22;34530;52.084;5.146;2023-04-06T13:10:36;15.30;63.70
48734;DHT22;34530;52.084;5.146;2023-04-06T13:13:02;15.30;63.70
48734;DHT22;34530;52.084;5.146;2023-04-06T13:15:28;15.30;63.70
48734;DHT22;34530;52.084;5.146;2023-04-06T13:17:54;15.30;63.70
48734;DHT22;34530;52.084;5.146;2023-04-06T13:20:19;15.30;63.80
48734;DHT22;34530;52.084;5.146;2023-04-06T13:22:45;15.30;63.80
48734;DHT22;34530;52.084;5.146;2023-04-06T13:25:11;15.30;63.70
48734;DHT22;34530;52.084;5.146;2023-04-06T13:27:36;15.30;63.70
48734;DHT22;34530;52.084;5.146;2023-04-06T13:30:03;15.30;63.70
48734;DHT22;34530;52.084;5.146;2023-04-06T13:32:28;15.30;63.70
48734;DHT22;34530;52.084;5.146;2023-04-06T13:34:55;15.30;63.80
48734;DHT22;34530;52.084;5.146;2023-04-06T13:37:21;15.30;63.70
48734;DHT22;34530;52.084;5.146;2023-04-06T13:39:47;15.30;63.80
48734;DHT22;34530;52.084;5.146;2023-04-06T13:42:12;15.30;63.80
48734;DHT22;34530;52.084;5.146;2023-04-06T13:44:38;15.30;63.80
48734;DHT22;34530;52.084;5.146;2023-04-06T13:47:04;15.30;63.80
48734;DHT22;34530;52.084;5.146;2023-04-06T13:49:29;15.30;63.80
48734;DHT22;34530;52.084;5.146;2023-04-06T13:51:55;15.30;63.80
48734;DHT22;34530;52.084;5.146;2023-04-06T13:54:21;15.30;64.50
48734;DHT22;34530;52.084;5.146;2023-04-06T13:56:47;15.30;63.80
48734;DHT22;34530;52.084;5.146;2023-04-06T13:59:12;15.30;63.80
48734;DHT22;34530;52.084;5.146;2023-04-06T14:01:38;15.30;63.80
48734;DHT22;34530;52.084;5.146;2023-04-06T14:04:03;15.30;63.80
48734;DHT22;34530;52.084;5.146;2023-04-06T14:06:29;15.30;63.80
48734;DHT22;34530;52.084;5.146;2023-04-06T14:08:55;15.30;64.50
48734;DHT22;34530;52.084;5.146;2023-04-06T14:11:22;15.30;63.80
48734;DHT22;34530;52.084;5.146;2023-04-06T14:13:47;15.30;63.80
48734;DHT22;34530;52.084;5.146;2023-04-06T14:16:13;15.30;63.80
48734;DHT22;34530;52.084;5.146;2023-04-06T14:18:38;15.30;63.80
48734;DHT22;34530;52.084;5.146;2023-04-06T14:21:04;15.30;63.90
48734;DHT22;34530;52.084;5.146;2023-04-06T14:23:31;15.30;63.80
48734;DHT22;34530;52.084;5.146;2023-04-06T14:26:04;15.30;63.90
48734;DHT22;34530;52.084;5.146;2023-04-06T14:28:34;15.30;63.80
48734;DHT22;34530;52.084;5.146;2023-04-06T14:31:01;15.20;63.70
48734;DHT22;34530;52.084;5.146;2023-04-06T14:33:29;15.20;63.80
48734;DHT22;34530;52.084;5.146;2023-04-06T14:35:55;15.20;63.70
48734;DHT22;34530;52.084;5.146;2023-04-06T14:38:21;15.20;63.80
48734;DHT22;34530;52.084;5.146;2023-04-06T14:40:47;15.20;63.80
48734;DHT22;34530;52.084;5.146;2023-04-06T14:43:13;15.20;63.80
48734;DHT22;34530;52.084;5.146;2023-04-06T14:45:39;15.20;63.80
48734;DHT22;34530;52.084;5.146;2023-04-06T14:48:05;15.20;63.80
48734;DHT22;34530;52.084;5.146;2023-04-06T14:50:38;15.20;63.80
48734;DHT22;34530;52.084;5.146;2023-04-06T14:53:03;15.20;63.80
48734;DHT22;34530;52.084;5.146;2023-04-06T14:55:30;15.20;63.80
48734;DHT22;34530;52.084;5.146;2023-04-06T14:57:56;15.20;63.80
48734;DHT22;34530;52.084;5.146;2023-04-06T15:00:21;15.20;64.60
48734;DHT22;34530;52.084;5.146;2023-04-06T15:02:47;15.20;63.80
48734;DHT22;34530;52.084;5.146;2023-04-06T15:05:13;15.20;63.80
48734;DHT22;34530;52.084;5.146;2023-04-06T15:07:38;15.20;63.80
48734;DHT22;34530;52.084;5.146;2023-04-06T15:10:05;15.20;63.80
48734;DHT22;34530;52.084;5.146;2023-04-06T15:12:31;15.20;63.80
48734;DHT22;34530;52.084;5.146;2023-04-06T15:14:58;15.30;63.90
48734;DHT22;34530;52.084;5.146;2023-04-06T15:17:24;15.20;63.80
48734;DHT22;34530;52.084;5.146;2023-04-06T15:19:51;15.20;63.80
48734;DHT22;34530;52.084;5.146;2023-04-06T15:22:18;15.20;63.80
48734;DHT22;34530;52.084;5.146;2023-04-06T15:24:44;15.20;63.80
48734;DHT22;34530;52.084;5.146;2023-04-06T15:27:09;15.20;63.80
48734;DHT22;34530;52.084;5.146;2023-04-06T15:29:35;15.20;63.80
48734;DHT22;34530;52.084;5.146;2023-04-06T15:32:01;15.20;63.90
48734;DHT22;34530;52.084;5.146;2023-04-06T15:34:27;15.20;63.90